createdAt,value
2022-12-22T00:00:32.491Z,49.08
2022-12-22T00:03:18.665Z,49.58
2022-12-22T00:06:04.980Z,52.13
2022-12-22T00:08:51.101Z,51.03
2022-12-22T00:11:45.569Z,52.25
2022-12-22T00:14:31.581Z,50.97
2022-12-22T00:17:21.152Z,49.80
2022-12-22T00:20:07.151Z,52.45
2022-12-22T00:22:53.139Z,47.72
2022-12-22T00:25:39.034Z,49.72
2022-12-22T00:28:33.811Z,43.20
2022-12-22T00:31:19.954Z,49.78
2022-12-22T00:36:51.702Z,46.30
2022-12-22T00:39:37.753Z,48.60
2022-12-22T00:45:09.435Z,50.55
2022-12-22T00:47:55.646Z,47.35
2022-12-22T00:50:51.227Z,49.92
2022-12-22T00:53:37.671Z,51.53
2022-12-22T00:56:25.661Z,49.83
2022-12-22T00:59:15.698Z,49.10
2022-12-22T01:02:01.835Z,48.72
2022-12-22T01:04:47.577Z,49.47
2022-12-22T01:07:37.608Z,48.92
2022-12-22T01:10:24.093Z,51.13
2022-12-22T01:13:12.806Z,51.97
2022-12-22T01:15:58.952Z,52.03
2022-12-22T01:18:44.869Z,49.72
2022-12-22T01:21:30.918Z,50.47
2022-12-22T01:24:16.905Z,49.90
2022-12-22T01:27:02.754Z,49.55
2022-12-22T01:29:48.778Z,53.13
2022-12-22T01:32:34.729Z,48.15
2022-12-22T01:35:20.735Z,51.72
2022-12-22T01:38:06.509Z,51.47
2022-12-22T01:40:52.563Z,48.38
2022-12-22T01:46:49.768Z,49.83
2022-12-22T01:50:00.191Z,50.40
2022-12-22T01:52:53.771Z,51.20
2022-12-22T01:55:43.847Z,49.28
2022-12-22T01:58:45.670Z,50.53
2022-12-22T02:01:31.575Z,46.85
2022-12-22T02:04:18.432Z,46.33
2022-12-22T02:07:05.656Z,44.90
2022-12-22T02:10:30.796Z,43.95
2022-12-22T02:13:41.615Z,44.28
2022-12-22T02:16:50.288Z,43.95
2022-12-22T02:20:02.983Z,41.53
2022-12-22T02:23:27.686Z,40.40
2022-12-22T02:26:57.662Z,39.80
2022-12-22T02:30:00.216Z,39.03
2022-12-22T02:32:46.111Z,39.30
2022-12-22T02:35:35.767Z,39.58
2022-12-22T02:39:12.266Z,40.20
2022-12-22T02:42:17.543Z,38.15
2022-12-22T02:45:52.396Z,37.78
2022-12-22T02:49:08.055Z,38.17
2022-12-22T02:52:04.069Z,38.35
2022-12-22T02:54:51.913Z,37.03
2022-12-22T02:57:38.993Z,39.83
2022-12-22T03:00:26.388Z,36.45
2022-12-22T03:03:12.641Z,36.08
2022-12-22T03:08:44.728Z,37.58
2022-12-22T03:11:30.804Z,37.88
2022-12-22T03:14:16.872Z,35.55
2022-12-22T03:17:02.838Z,38.65
2022-12-22T03:19:49.021Z,39.38
2022-12-22T03:25:20.683Z,37.70
2022-12-22T03:27:47.951Z,38.50
2022-12-22T03:30:15.469Z,39.90
2022-12-22T03:32:42.600Z,38.20
2022-12-22T03:35:09.990Z,41.30
2022-12-22T03:37:37.219Z,39.17
2022-12-22T03:40:05.322Z,39.70
2022-12-22T03:42:51.297Z,41.50
2022-12-22T03:45:37.274Z,41.50
2022-12-22T03:48:04.625Z,39.72
2022-12-22T03:50:31.864Z,40.80
2022-12-22T03:52:59.002Z,41.90
2022-12-22T03:55:26.572Z,42.35
2022-12-22T03:57:53.950Z,42.65
2022-12-22T04:00:21.257Z,41.78
2022-12-22T04:02:48.774Z,40.92
2022-12-22T04:05:16.404Z,41.72
2022-12-22T04:07:43.688Z,40.67
2022-12-22T04:10:29.577Z,39.35
2022-12-22T04:12:56.944Z,41.83
2022-12-22T04:15:32.209Z,41.00
2022-12-22T04:18:00.190Z,43.38
2022-12-22T04:20:28.371Z,39.90
2022-12-22T04:22:57.027Z,41.90
2022-12-22T04:25:26.093Z,41.10
2022-12-22T04:27:53.431Z,40.40
2022-12-22T04:30:21.128Z,42.42
2022-12-22T04:32:48.292Z,41.97
2022-12-22T04:35:15.630Z,42.00
2022-12-22T04:37:42.961Z,43.15
2022-12-22T04:40:10.623Z,42.00
2022-12-22T04:42:37.892Z,41.42
2022-12-22T04:45:06.346Z,39.47
2022-12-22T04:47:33.482Z,43.67
2022-12-22T04:50:00.687Z,41.80
2022-12-22T04:52:27.882Z,42.92
2022-12-22T04:54:55.059Z,42.90
2022-12-22T04:57:22.408Z,41.72
2022-12-22T04:59:49.541Z,42.47
2022-12-22T05:02:16.903Z,41.42
2022-12-22T05:04:44.110Z,42.53
2022-12-22T05:07:11.349Z,40.33
2022-12-22T05:09:38.585Z,42.72
2022-12-22T05:12:26.315Z,41.55
2022-12-22T05:14:53.827Z,39.90
2022-12-22T05:17:21.102Z,40.20
2022-12-22T05:19:48.447Z,38.58
2022-12-22T05:22:15.773Z,39.08
2022-12-22T05:24:42.926Z,39.70
2022-12-22T05:27:12.509Z,39.03
2022-12-22T05:29:39.661Z,39.80
2022-12-22T05:32:06.923Z,37.03
2022-12-22T05:34:34.254Z,37.47
2022-12-22T05:37:01.399Z,36.83
2022-12-22T05:39:28.615Z,36.30
2022-12-22T05:41:55.915Z,37.28
2022-12-22T05:44:23.077Z,38.92
2022-12-22T05:46:53.395Z,40.33
2022-12-22T05:49:21.302Z,38.47
2022-12-22T05:51:48.868Z,38.25
2022-12-22T05:54:16.249Z,37.97
2022-12-22T05:56:43.423Z,39.05
2022-12-22T05:59:11.946Z,37.83
2022-12-22T06:01:39.499Z,38.92
2022-12-22T06:04:06.880Z,37.45
2022-12-22T06:06:34.117Z,37.60
2022-12-22T06:09:01.342Z,39.30
2022-12-22T06:11:31.555Z,39.45
2022-12-22T06:13:58.724Z,38.88
2022-12-22T06:16:26.111Z,40.33
2022-12-22T06:18:53.443Z,40.58
2022-12-22T06:21:20.588Z,39.45
2022-12-22T06:23:48.347Z,41.20
2022-12-22T06:26:18.252Z,41.22
2022-12-22T06:28:45.613Z,42.25
2022-12-22T06:31:13.056Z,43.65
2022-12-22T06:33:40.374Z,41.45
2022-12-22T06:36:09.303Z,41.75
2022-12-22T06:38:36.518Z,41.22
2022-12-22T06:41:04.085Z,40.53
2022-12-22T06:43:31.475Z,42.03
2022-12-22T06:45:58.706Z,42.80
2022-12-22T06:48:25.995Z,42.60
2022-12-22T06:51:01.050Z,42.05
2022-12-22T06:53:28.296Z,40.47
2022-12-22T06:55:57.908Z,42.50
2022-12-22T06:58:31.030Z,42.65
2022-12-22T07:00:58.242Z,42.97
2022-12-22T07:03:25.911Z,40.65
2022-12-22T07:05:53.439Z,43.10
2022-12-22T07:08:23.215Z,42.08
2022-12-22T07:10:59.664Z,40.55
2022-12-22T07:13:34.002Z,40.17
2022-12-22T07:16:11.732Z,41.65
2022-12-22T07:18:45.450Z,41.42
2022-12-22T07:21:22.391Z,38.92
2022-12-22T07:23:52.213Z,38.40
2022-12-22T07:26:22.085Z,40.35
2022-12-22T07:28:55.826Z,41.42
2022-12-22T07:31:26.337Z,40.35
2022-12-22T07:34:28.059Z,41.35
2022-12-22T07:36:46.125Z,39.47
2022-12-22T07:39:28.652Z,40.83
2022-12-22T07:42:27.627Z,40.55
2022-12-22T07:45:00.236Z,41.05
2022-12-22T07:47:35.670Z,46.58
2022-12-22T07:53:06.783Z,39.40
2022-12-22T07:55:40.753Z,39.92
2022-12-22T07:58:10.697Z,39.67
2022-12-22T08:00:42.683Z,41.10
2022-12-22T08:03:13.214Z,40.03
2022-12-22T08:05:56.725Z,47.65
2022-12-22T08:08:36.855Z,43.63
2022-12-22T08:11:12.547Z,46.22
2022-12-22T08:13:43.991Z,40.83
2022-12-22T08:16:18.201Z,44.92
2022-12-22T08:18:47.735Z,43.40
2022-12-22T08:21:16.711Z,44.53
2022-12-22T08:23:50.886Z,42.17
2022-12-22T08:26:49.343Z,44.95
2022-12-22T08:30:08.485Z,44.58
2022-12-22T08:32:40.558Z,44.90
2022-12-22T08:35:16.250Z,40.05
2022-12-22T08:37:59.019Z,41.38
2022-12-22T08:40:38.062Z,37.60
2022-12-22T08:43:13.715Z,39.00
2022-12-22T08:45:44.413Z,39.30
2022-12-22T08:48:34.008Z,38.20
2022-12-22T08:51:14.949Z,44.13
2022-12-22T08:54:05.894Z,39.75
2022-12-22T08:56:37.155Z,38.15
2022-12-22T08:59:14.097Z,40.35
2022-12-22T09:01:48.188Z,39.85
2022-12-22T09:04:25.008Z,41.17
2022-12-22T09:07:21.757Z,41.67
2022-12-22T09:09:54.858Z,39.05
2022-12-22T09:12:22.270Z,40.42
2022-12-22T09:14:55.646Z,40.35
2022-12-22T09:17:32.024Z,40.17
2022-12-22T09:20:06.634Z,41.90
2022-12-22T09:22:44.236Z,41.95
2022-12-22T09:25:18.475Z,40.83
2022-12-22T09:27:57.743Z,42.17
2022-12-22T09:30:36.979Z,42.38
2022-12-22T09:33:11.018Z,41.35
2022-12-22T09:35:46.347Z,40.92
2022-12-22T09:38:14.455Z,41.78
2022-12-22T09:40:52.855Z,40.85
2022-12-22T09:43:28.897Z,39.65
2022-12-22T09:46:31.132Z,40.45
2022-12-22T09:48:59.791Z,39.00
2022-12-22T09:52:04.115Z,39.50
2022-12-22T09:54:32.053Z,39.58
2022-12-22T09:57:07.933Z,40.47
2022-12-22T10:03:04.358Z,40.55
2022-12-22T10:06:09.914Z,40.47
2022-12-22T10:08:46.984Z,43.42
2022-12-22T10:11:59.495Z,41.17
2022-12-22T10:14:51.009Z,40.75
2022-12-22T10:17:35.951Z,40.63
2022-12-22T10:20:36.067Z,40.20
2022-12-22T10:23:35.912Z,41.58
2022-12-22T10:26:37.771Z,40.33
2022-12-22T10:29:25.584Z,38.20
2022-12-22T10:32:22.479Z,36.80
2022-12-22T10:35:12.471Z,42.38
2022-12-22T10:37:43.771Z,40.85
2022-12-22T10:40:27.029Z,39.70
2022-12-22T10:43:05.025Z,38.75
2022-12-22T10:48:49.014Z,40.42
2022-12-22T10:51:29.250Z,38.78
2022-12-22T10:54:16.561Z,39.03
2022-12-22T10:57:32.187Z,37.30
2022-12-22T11:00:21.092Z,36.63
2022-12-22T11:03:06.960Z,34.83
2022-12-22T11:05:42.460Z,31.42
2022-12-22T11:08:26.646Z,32.08
2022-12-22T11:11:11.103Z,32.08
2022-12-22T11:14:20.691Z,33.10
2022-12-22T11:17:20.136Z,32.83
2022-12-22T11:21:03.775Z,32.17
2022-12-22T11:24:36.138Z,31.35
2022-12-22T11:27:44.058Z,31.85
2022-12-22T11:30:52.506Z,32.97
2022-12-22T11:34:31.942Z,32.90
2022-12-22T11:37:52.189Z,33.03
2022-12-22T11:40:53.346Z,34.88
2022-12-22T11:44:19.258Z,33.13
2022-12-22T11:47:26.981Z,35.15
2022-12-22T11:54:11.930Z,30.50
2022-12-22T11:56:52.451Z,31.25
2022-12-22T12:00:08.233Z,32.30
2022-12-22T12:03:38.675Z,34.60
2022-12-22T12:07:03.143Z,34.90
2022-12-22T12:10:28.389Z,35.22
2022-12-22T12:17:03.035Z,33.38
2022-12-22T12:20:20.595Z,33.40
2022-12-22T12:23:29.454Z,31.20
2022-12-22T12:26:34.205Z,30.92
2022-12-22T12:33:30.861Z,32.97
2022-12-22T12:36:26.651Z,30.95
2022-12-22T12:39:32.285Z,31.38
2022-12-22T12:42:46.723Z,30.40
2022-12-22T12:48:26.523Z,31.02
2022-12-22T12:51:04.498Z,31.67
2022-12-22T12:56:14.012Z,30.05
2022-12-22T12:58:59.076Z,31.02
2022-12-22T13:01:34.306Z,30.75
2022-12-22T13:04:13.157Z,29.30
2022-12-22T13:07:05.007Z,30.08
2022-12-22T13:10:33.364Z,30.52
2022-12-22T13:13:34.812Z,29.90
2022-12-22T13:16:02.425Z,30.73
2022-12-22T13:18:49.897Z,30.88
2022-12-22T13:21:54.856Z,29.85
2022-12-22T13:24:46.889Z,30.27
2022-12-22T13:27:22.717Z,29.13
2022-12-22T13:29:55.591Z,30.52
2022-12-22T13:32:34.080Z,31.83
2022-12-22T13:35:38.657Z,31.60
2022-12-22T13:38:34.411Z,32.53
2022-12-22T13:41:18.882Z,32.75
2022-12-22T13:44:01.217Z,31.02
2022-12-22T13:46:28.597Z,33.13
2022-12-22T13:49:00.298Z,33.65
2022-12-22T13:51:32.795Z,32.20
2022-12-22T13:54:18.016Z,33.25
2022-12-22T13:56:52.971Z,32.47
2022-12-22T13:59:43.767Z,32.50
2022-12-22T14:02:11.929Z,31.50
2022-12-22T14:05:03.721Z,32.28
2022-12-22T14:07:31.580Z,32.40
2022-12-22T14:09:59.347Z,32.85
2022-12-22T14:12:47.167Z,31.77
2022-12-22T14:15:20.156Z,32.95
2022-12-22T14:17:52.648Z,31.77
2022-12-22T14:20:32.290Z,33.00
2022-12-22T14:23:06.453Z,32.20
2022-12-22T14:25:44.605Z,32.88
2022-12-22T14:28:43.139Z,32.72
2022-12-22T14:31:13.619Z,31.60
2022-12-22T14:34:05.172Z,34.35
2022-12-22T14:36:46.120Z,33.78
2022-12-22T14:39:30.877Z,29.50
2022-12-22T14:42:12.133Z,29.73
2022-12-22T14:44:46.343Z,30.20
2022-12-22T14:47:16.070Z,31.15
2022-12-22T14:50:27.342Z,31.77
2022-12-22T14:53:00.517Z,31.45
2022-12-22T14:55:42.791Z,32.95
2022-12-22T14:58:29.735Z,30.77
2022-12-22T15:01:32.905Z,31.02
2022-12-22T15:04:04.297Z,32.08
2022-12-22T15:06:35.268Z,29.85
2022-12-22T15:09:09.061Z,29.95
2022-12-22T15:11:42.254Z,64.80
2022-12-22T15:14:18.430Z,31.75
2022-12-22T15:16:47.175Z,30.52
2022-12-22T15:19:18.575Z,32.28
2022-12-22T15:21:47.096Z,31.35
2022-12-22T15:24:18.359Z,37.17
2022-12-22T15:26:46.762Z,35.35
2022-12-22T15:29:14.564Z,39.47
2022-12-22T15:31:43.483Z,35.33
2022-12-22T15:34:29.287Z,32.83
2022-12-22T15:36:56.650Z,30.70
2022-12-22T15:39:24.656Z,30.30
2022-12-22T15:41:52.050Z,31.75
2022-12-22T15:44:19.518Z,31.92
2022-12-22T15:46:57.693Z,33.17
2022-12-22T15:49:29.579Z,31.13
2022-12-22T15:52:04.395Z,29.48
2022-12-22T15:54:36.378Z,30.95
2022-12-22T15:57:04.205Z,32.10
2022-12-22T15:59:31.479Z,31.92
2022-12-22T16:02:01.787Z,32.95
2022-12-22T16:04:30.071Z,33.20
2022-12-22T16:06:59.759Z,31.38
2022-12-22T16:09:38.146Z,32.72
2022-12-22T16:12:18.973Z,31.88
2022-12-22T16:14:52.102Z,32.53
2022-12-22T16:17:26.949Z,32.20
2022-12-22T16:19:54.470Z,29.57
2022-12-22T16:22:34.153Z,28.77
2022-12-22T16:25:07.064Z,38.08
2022-12-22T16:27:35.752Z,28.55
2022-12-22T16:30:05.367Z,27.85
2022-12-22T16:32:32.902Z,27.75
2022-12-22T16:35:09.062Z,28.50
2022-12-22T16:37:39.463Z,26.85
2022-12-22T16:40:11.393Z,25.20
2022-12-22T16:45:32.705Z,25.27
2022-12-22T16:48:05.939Z,26.27
2022-12-22T16:50:33.683Z,25.70
2022-12-22T16:53:09.465Z,24.55
2022-12-22T16:58:12.907Z,20.50
2022-12-22T17:00:44.470Z,23.55
2022-12-22T17:03:28.218Z,23.02
2022-12-22T17:06:03.242Z,22.48
2022-12-22T17:08:39.320Z,23.38
2022-12-22T17:11:11.559Z,24.65
2022-12-22T17:13:41.543Z,24.17
2022-12-22T17:16:21.625Z,22.67
2022-12-22T17:18:49.409Z,23.08
2022-12-22T17:21:21.075Z,23.95
2022-12-22T17:23:54.596Z,23.00
2022-12-22T17:26:24.810Z,27.92
2022-12-22T17:28:53.159Z,22.92
2022-12-22T17:31:24.014Z,27.08
2022-12-22T17:33:51.456Z,22.98
2022-12-22T17:36:37.536Z,24.02
2022-12-22T17:41:32.681Z,23.30
2022-12-22T17:44:00.038Z,22.67
2022-12-22T17:46:28.220Z,24.13
2022-12-22T17:48:55.411Z,22.65
2022-12-22T17:51:28.402Z,24.23
2022-12-22T17:53:58.860Z,25.98
2022-12-22T17:56:29.231Z,25.00
2022-12-22T17:58:56.569Z,26.05
2022-12-22T18:01:36.260Z,26.23
2022-12-22T18:04:04.022Z,26.58
2022-12-22T18:06:36.093Z,25.27
2022-12-22T18:09:05.410Z,26.55
2022-12-22T18:11:33.329Z,28.67
2022-12-22T18:14:00.628Z,28.63
2022-12-22T18:16:28.518Z,29.63
2022-12-22T18:18:55.882Z,31.33
2022-12-22T18:21:25.130Z,34.05
2022-12-22T18:23:52.867Z,32.75
2022-12-22T18:26:25.701Z,32.17
2022-12-22T18:28:54.536Z,34.08
2022-12-22T18:31:23.570Z,34.00
2022-12-22T18:33:51.419Z,31.90
2022-12-22T18:36:34.549Z,32.17
2022-12-22T18:39:04.656Z,31.65
2022-12-22T18:41:37.335Z,33.35
2022-12-22T18:44:07.556Z,34.55
2022-12-22T18:46:35.087Z,36.08
2022-12-22T18:49:05.873Z,40.58
2022-12-22T18:51:33.445Z,40.92
2022-12-22T18:54:00.903Z,39.83
2022-12-22T18:56:28.184Z,35.95
2022-12-22T18:58:55.543Z,34.28
2022-12-22T19:01:26.683Z,33.78
2022-12-22T19:03:57.031Z,33.50
2022-12-22T19:06:24.624Z,32.55
2022-12-22T19:08:52.198Z,30.60
2022-12-22T19:11:25.290Z,32.80
2022-12-22T19:13:53.264Z,31.67
2022-12-22T19:16:26.298Z,36.67
2022-12-22T19:18:53.759Z,38.05
2022-12-22T19:21:21.262Z,36.00
2022-12-22T19:23:48.446Z,37.65
2022-12-22T19:26:28.046Z,40.55
2022-12-22T19:29:02.005Z,41.85
2022-12-22T19:31:33.885Z,41.70
2022-12-22T19:34:05.845Z,38.50
2022-12-22T19:36:34.413Z,39.92
2022-12-22T19:39:05.223Z,40.10
2022-12-22T19:41:45.217Z,33.08
2022-12-22T19:44:27.569Z,33.10
2022-12-22T19:46:59.256Z,33.42
2022-12-22T19:49:28.713Z,33.20
2022-12-22T19:51:57.087Z,32.47
2022-12-22T19:54:25.226Z,33.58
2022-12-22T19:56:56.233Z,34.33
2022-12-22T19:59:50.103Z,33.42
2022-12-22T20:02:32.056Z,32.65
2022-12-22T20:05:01.152Z,32.20
2022-12-22T20:07:30.597Z,33.35
2022-12-22T20:09:57.899Z,37.25
2022-12-22T20:12:42.206Z,33.30
2022-12-22T20:15:37.062Z,33.70
2022-12-22T20:18:19.545Z,28.42
2022-12-22T20:21:00.457Z,27.35
2022-12-22T20:23:38.444Z,29.58
2022-12-22T20:26:18.012Z,29.45
2022-12-22T20:28:45.359Z,29.75
2022-12-22T20:31:16.615Z,31.23
2022-12-22T20:33:43.998Z,32.38
2022-12-22T20:36:23.350Z,31.75
2022-12-22T20:38:52.651Z,32.22
2022-12-22T20:41:21.297Z,33.95
2022-12-22T20:43:49.797Z,31.65
2022-12-22T20:46:37.580Z,32.30
2022-12-22T20:49:13.286Z,31.80
2022-12-22T20:51:40.770Z,32.75
2022-12-22T20:54:13.722Z,33.35
2022-12-22T20:56:44.898Z,32.88
2022-12-22T20:59:22.183Z,32.17
2022-12-22T21:01:52.827Z,33.50
2022-12-22T21:04:21.501Z,35.08
2022-12-22T21:06:55.846Z,33.92
2022-12-22T21:09:28.008Z,33.67
2022-12-22T21:11:55.224Z,33.53
2022-12-22T21:14:22.505Z,32.78
2022-12-22T21:16:52.257Z,32.90
2022-12-22T21:19:20.074Z,33.55
2022-12-22T21:21:47.831Z,32.83
2022-12-22T21:24:18.730Z,31.90
2022-12-22T21:26:55.289Z,30.35
2022-12-22T21:29:26.995Z,34.15
2022-12-22T21:31:57.289Z,33.55
2022-12-22T21:34:24.494Z,33.22
2022-12-22T21:37:00.010Z,35.45
2022-12-22T21:39:41.572Z,34.92
2022-12-22T21:42:17.948Z,35.05
2022-12-22T21:44:47.738Z,34.00
2022-12-22T21:47:20.611Z,34.53
2022-12-22T21:49:47.917Z,34.42
2022-12-22T21:52:15.478Z,35.45
2022-12-22T21:54:42.684Z,37.60
2022-12-22T21:57:16.241Z,36.22
2022-12-22T21:59:43.525Z,37.40
2022-12-22T22:02:17.103Z,39.28
2022-12-22T22:04:51.824Z,40.13
2022-12-22T22:07:21.942Z,40.72
2022-12-22T22:09:49.311Z,45.40
2022-12-22T22:12:36.727Z,48.25
2022-12-22T22:15:08.450Z,48.15
2022-12-22T22:17:35.859Z,47.42
2022-12-22T22:20:05.840Z,49.38
2022-12-22T22:22:33.156Z,51.67
2022-12-22T22:25:00.334Z,54.08
2022-12-22T22:27:27.638Z,54.28
2022-12-22T22:29:55.044Z,56.22
2022-12-22T22:32:22.381Z,56.92
2022-12-22T22:34:51.341Z,58.83
2022-12-22T22:37:19.775Z,60.00
2022-12-22T22:39:47.006Z,60.33
2022-12-22T22:42:14.553Z,59.03
2022-12-22T22:44:43.787Z,60.63
2022-12-22T22:47:12.004Z,59.22
2022-12-22T22:49:39.263Z,56.47
2022-12-22T22:52:06.775Z,59.33
2022-12-22T22:54:34.135Z,59.88
2022-12-22T22:57:01.402Z,56.40
2022-12-22T22:59:28.733Z,58.90
2022-12-22T23:01:56.038Z,58.47
2022-12-22T23:04:23.421Z,57.38
2022-12-22T23:06:50.688Z,58.80
2022-12-22T23:09:18.191Z,60.38
2022-12-22T23:11:45.765Z,61.28
2022-12-22T23:14:13.147Z,61.75
2022-12-22T23:16:40.425Z,58.75
2022-12-22T23:19:12.419Z,58.25
2022-12-22T23:21:39.893Z,59.25
2022-12-22T23:24:08.089Z,60.60
2022-12-22T23:26:36.032Z,59.88
2022-12-22T23:29:04.152Z,62.22
2022-12-22T23:31:35.227Z,62.65
2022-12-22T23:34:03.662Z,61.95
2022-12-22T23:36:31.830Z,61.40
2022-12-22T23:38:59.063Z,60.90
2022-12-22T23:41:26.528Z,61.42
2022-12-22T23:43:54.995Z,62.53
2022-12-22T23:46:22.822Z,63.13
2022-12-22T23:48:57.375Z,62.55
2022-12-22T23:51:28.501Z,61.85
2022-12-22T23:53:59.445Z,61.22
2022-12-22T23:56:28.160Z,65.55
2022-12-22T23:58:55.741Z,61.72
